Saginaw, Arkansas
Current Conditions -  °F | °C
As of 3:56 AM on Friday 28 Nov 2014 (Local Time) from KADF Reporting Station
Clear Clear  
Wind Chill: 29°   Ceiling: Unl
Heat Index: 29°   Visibility: 8mi
Dew Point: 29°   Wind: 0mph
Humidity: 100%   Direction: NA
Pressure: 30.4"   Gusts: NA
Location:  34.2003°N, 92.9301°W
Report Text: KADF 280956Z AUTO 00000KT 8SM CLR M02/M02 A3040 RMK AO2 T10161016 SLP311
Loading
Personal Weather Stations






























Interactive Weather Map New forecast layout! Learn more

10-Day Weather Forecast

Advertisements
Track Severe Weather on mobile